sensor_id;sensor_type;location;lat;lon;timestamp;temperature;humidity
7502;DHT22;3792;47.740;7.606;2023-04-15T00:01:30;8.60;99.90
7502;DHT22;3792;47.740;7.606;2023-04-15T00:04:00;8.70;99.90
7502;DHT22;3792;47.740;7.606;2023-04-15T00:06:27;8.70;99.90
7502;DHT22;3792;47.740;7.606;2023-04-15T00:08:54;8.80;99.90
7502;DHT22;3792;47.740;7.606;2023-04-15T00:11:21;8.80;99.90
7502;DHT22;3792;47.740;7.606;2023-04-15T00:13:49;8.80;99.90
7502;DHT22;3792;47.740;7.606;2023-04-15T00:16:16;8.80;99.90
7502;DHT22;3792;47.740;7.606;2023-04-15T00:18:42;8.80;99.90
7502;DHT22;3792;47.740;7.606;2023-04-15T00:21:11;8.80;99.90
7502;DHT22;3792;47.740;7.606;2023-04-15T00:23:38;8.80;99.90
7502;DHT22;3792;47.740;7.606;2023-04-15T00:26:05;8.80;99.90
7502;DHT22;3792;47.740;7.606;2023-04-15T00:28:33;8.80;99.90
7502;DHT22;3792;47.740;7.606;2023-04-15T00:31:00;8.80;99.90
7502;DHT22;3792;47.740;7.606;2023-04-15T00:33:27;8.80;99.90
7502;DHT22;3792;47.740;7.606;2023-04-15T00:35:54;8.80;99.90
7502;DHT22;3792;47.740;7.606;2023-04-15T00:38:22;8.70;99.90
7502;DHT22;3792;47.740;7.606;2023-04-15T00:40:49;8.70;99.90
7502;DHT22;3792;47.740;7.606;2023-04-15T00:43:16;8.70;99.90
7502;DHT22;3792;47.740;7.606;2023-04-15T00:45:43;8.70;99.90
7502;DHT22;3792;47.740;7.606;2023-04-15T00:48:11;8.70;99.90
7502;DHT22;3792;47.740;7.606;2023-04-15T00:50:38;8.70;99.90
7502;DHT22;3792;47.740;7.606;2023-04-15T00:53:05;8.70;99.90
7502;DHT22;3792;47.740;7.606;2023-04-15T00:55:34;8.60;99.90
7502;DHT22;3792;47.740;7.606;2023-04-15T00:58:01;8.60;99.90
7502;DHT22;3792;47.740;7.606;2023-04-15T01:00:28;8.60;99.90
7502;DHT22;3792;47.740;7.606;2023-04-15T01:02:55;8.50;99.90
7502;DHT22;3792;47.740;7.606;2023-04-15T01:05:23;8.50;99.90
7502;DHT22;3792;47.740;7.606;2023-04-15T01:07:50;8.50;99.90
7502;DHT22;3792;47.740;7.606;2023-04-15T01:10:17;8.60;99.90
7502;DHT22;3792;47.740;7.606;2023-04-15T01:12:46;8.60;99.90
7502;DHT22;3792;47.740;7.606;2023-04-15T01:15:13;8.60;99.90
7502;DHT22;3792;47.740;7.606;2023-04-15T01:17:40;8.70;99.90
7502;DHT22;3792;47.740;7.606;2023-04-15T01:20:08;8.70;99.90
7502;DHT22;3792;47.740;7.606;2023-04-15T01:22:36;8.80;99.90
7502;DHT22;3792;47.740;7.606;2023-04-15T01:25:08;8.70;99.90
7502;DHT22;3792;47.740;7.606;2023-04-15T01:27:38;8.70;99.90
7502;DHT22;3792;47.740;7.606;2023-04-15T01:30:06;8.70;99.90
7502;DHT22;3792;47.740;7.606;2023-04-15T01:32:34;8.70;99.90
7502;DHT22;3792;47.740;7.606;2023-04-15T01:35:01;8.80;99.90
7502;DHT22;3792;47.740;7.606;2023-04-15T01:37:28;8.70;99.90
7502;DHT22;3792;47.740;7.606;2023-04-15T01:39:56;8.60;99.90
7502;DHT22;3792;47.740;7.606;2023-04-15T01:42:23;8.60;99.90
7502;DHT22;3792;47.740;7.606;2023-04-15T01:44:52;8.70;99.90
7502;DHT22;3792;47.740;7.606;2023-04-15T01:47:19;8.60;99.90
7502;DHT22;3792;47.740;7.606;2023-04-15T01:49:47;8.70;99.90
7502;DHT22;3792;47.740;7.606;2023-04-15T01:52:14;8.70;99.90
7502;DHT22;3792;47.740;7.606;2023-04-15T01:54:41;8.80;99.90
7502;DHT22;3792;47.740;7.606;2023-04-15T01:57:08;8.80;99.90
7502;DHT22;3792;47.740;7.606;2023-04-15T01:59:35;8.70;99.90
7502;DHT22;3792;47.740;7.606;2023-04-15T02:02:04;8.80;99.90
7502;DHT22;3792;47.740;7.606;2023-04-15T02:04:31;8.80;99.90
7502;DHT22;3792;47.740;7.606;2023-04-15T02:06:58;8.80;99.90
7502;DHT22;3792;47.740;7.606;2023-04-15T02:09:26;8.80;99.90
7502;DHT22;3792;47.740;7.606;2023-04-15T02:11:53;8.80;99.90
7502;DHT22;3792;47.740;7.606;2023-04-15T02:14:20;8.90;99.90
7502;DHT22;3792;47.740;7.606;2023-04-15T02:16:47;8.80;99.90
7502;DHT22;3792;47.740;7.606;2023-04-15T02:19:15;8.80;99.90
7502;DHT22;3792;47.740;7.606;2023-04-15T02:21:42;8.80;99.90
7502;DHT22;3792;47.740;7.606;2023-04-15T02:24:09;8.80;99.90
7502;DHT22;3792;47.740;7.606;2023-04-15T02:26:37;8.80;99.90
7502;DHT22;3792;47.740;7.606;2023-04-15T02:29:04;8.80;99.90
7502;DHT22;3792;47.740;7.606;2023-04-15T02:31:31;8.70;99.90
7502;DHT22;3792;47.740;7.606;2023-04-15T02:34:01;8.70;99.90
7502;DHT22;3792;47.740;7.606;2023-04-15T02:36:30;8.60;99.90
7502;DHT22;3792;47.740;7.606;2023-04-15T02:38:59;8.60;99.90
7502;DHT22;3792;47.740;7.606;2023-04-15T02:41:26;8.60;99.90
7502;DHT22;3792;47.740;7.606;2023-04-15T02:43:53;8.60;99.90
7502;DHT22;3792;47.740;7.606;2023-04-15T02:46:20;8.70;99.90
7502;DHT22;3792;47.740;7.606;2023-04-15T02:48:47;8.70;99.90
7502;DHT22;3792;47.740;7.606;2023-04-15T02:51:15;8.80;99.90
7502;DHT22;3792;47.740;7.606;2023-04-15T02:53:45;8.80;99.90
7502;DHT22;3792;47.740;7.606;2023-04-15T02:56:13;8.80;99.90
7502;DHT22;3792;47.740;7.606;2023-04-15T02:58:42;8.70;99.90
7502;DHT22;3792;47.740;7.606;2023-04-15T03:01:09;8.70;99.90
7502;DHT22;3792;47.740;7.606;2023-04-15T03:03:36;8.60;99.90
7502;DHT22;3792;47.740;7.606;2023-04-15T03:06:03;8.60;99.90
7502;DHT22;3792;47.740;7.606;2023-04-15T03:08:31;8.60;99.90
7502;DHT22;3792;47.740;7.606;2023-04-15T03:10:59;8.60;99.90
7502;DHT22;3792;47.740;7.606;2023-04-15T03:13:27;8.60;99.90
7502;DHT22;3792;47.740;7.606;2023-04-15T03:15:54;8.60;99.90
7502;DHT22;3792;47.740;7.606;2023-04-15T03:18:21;8.60;99.90
7502;DHT22;3792;47.740;7.606;2023-04-15T03:20:48;8.70;99.90
7502;DHT22;3792;47.740;7.606;2023-04-15T03:23:15;8.70;99.90
7502;DHT22;3792;47.740;7.606;2023-04-15T03:25:43;8.70;99.90
7502;DHT22;3792;47.740;7.606;2023-04-15T03:28:12;8.70;99.90
7502;DHT22;3792;47.740;7.606;2023-04-15T03:30:39;8.70;99.90
7502;DHT22;3792;47.740;7.606;2023-04-15T03:33:06;8.60;99.90
7502;DHT22;3792;47.740;7.606;2023-04-15T03:35:33;8.60;99.90
7502;DHT22;3792;47.740;7.606;2023-04-15T03:38:00;8.60;99.90
7502;DHT22;3792;47.740;7.606;2023-04-15T03:40:27;8.60;99.90
7502;DHT22;3792;47.740;7.606;2023-04-15T03:42:55;8.70;99.90
7502;DHT22;3792;47.740;7.606;2023-04-15T03:45:24;8.70;99.90
7502;DHT22;3792;47.740;7.606;2023-04-15T03:47:51;8.60;99.90
7502;DHT22;3792;47.740;7.606;2023-04-15T03:50:18;8.70;99.90
7502;DHT22;3792;47.740;7.606;2023-04-15T03:52:45;8.70;99.90
7502;DHT22;3792;47.740;7.606;2023-04-15T03:55:12;8.70;99.90
7502;DHT22;3792;47.740;7.606;2023-04-15T03:57:40;8.60;99.90
7502;DHT22;3792;47.740;7.606;2023-04-15T04:00:08;8.70;99.90
7502;DHT22;3792;47.740;7.606;2023-04-15T04:02:36;8.70;99.90
7502;DHT22;3792;47.740;7.606;2023-04-15T04:05:04;8.60;99.90
7502;DHT22;3792;47.740;7.606;2023-04-15T04:07:31;8.60;99.90
7502;DHT22;3792;47.740;7.606;2023-04-15T04:09:58;8.70;99.90
7502;DHT22;3792;47.740;7.606;2023-04-15T04:12:25;8.60;99.90
7502;DHT22;3792;47.740;7.606;2023-04-15T04:14:52;8.50;99.90
7502;DHT22;3792;47.740;7.606;2023-04-15T04:17:19;8.50;99.90
7502;DHT22;3792;47.740;7.606;2023-04-15T04:19:47;8.60;99.90
7502;DHT22;3792;47.740;7.606;2023-04-15T04:22:14;8.60;99.90
7502;DHT22;3792;47.740;7.606;2023-04-15T04:24:41;8.70;99.90
7502;DHT22;3792;47.740;7.606;2023-04-15T04:27:08;8.80;99.90
7502;DHT22;3792;47.740;7.606;2023-04-15T04:29:35;8.80;99.90
7502;DHT22;3792;47.740;7.606;2023-04-15T04:32:03;8.80;99.90
7502;DHT22;3792;47.740;7.606;2023-04-15T04:34:30;8.80;99.90
7502;DHT22;3792;47.740;7.606;2023-04-15T04:36:58;8.80;99.90
7502;DHT22;3792;47.740;7.606;2023-04-15T04:39:25;8.70;99.90
7502;DHT22;3792;47.740;7.606;2023-04-15T04:41:52;8.70;99.90
7502;DHT22;3792;47.740;7.606;2023-04-15T04:44:19;8.80;99.90
7502;DHT22;3792;47.740;7.606;2023-04-15T04:46:46;8.80;99.90
7502;DHT22;3792;47.740;7.606;2023-04-15T04:49:13;8.80;99.90
7502;DHT22;3792;47.740;7.606;2023-04-15T04:51:40;8.80;99.90
7502;DHT22;3792;47.740;7.606;2023-04-15T04:54:09;8.80;99.90
7502;DHT22;3792;47.740;7.606;2023-04-15T04:56:36;8.40;99.90
7502;DHT22;3792;47.740;7.606;2023-04-15T04:59:04;8.30;99.90
7502;DHT22;3792;47.740;7.606;2023-04-15T05:01:31;8.30;99.90
7502;DHT22;3792;47.740;7.606;2023-04-15T05:03:59;8.30;99.90
7502;DHT22;3792;47.740;7.606;2023-04-15T05:06:26;8.30;99.90
7502;DHT22;3792;47.740;7.606;2023-04-15T05:08:55;8.30;99.90
7502;DHT22;3792;47.740;7.606;2023-04-15T05:11:23;8.30;99.90
7502;DHT22;3792;47.740;7.606;2023-04-15T05:13:50;8.30;99.90
7502;DHT22;3792;47.740;7.606;2023-04-15T05:16:17;8.30;99.90
7502;DHT22;3792;47.740;7.606;2023-04-15T05:18:45;8.30;99.90
7502;DHT22;3792;47.740;7.606;2023-04-15T05:21:12;8.20;99.90
7502;DHT22;3792;47.740;7.606;2023-04-15T05:23:39;8.20;99.90
7502;DHT22;3792;47.740;7.606;2023-04-15T05:26:06;8.20;99.90
7502;DHT22;3792;47.740;7.606;2023-04-15T05:28:35;8.20;99.90
7502;DHT22;3792;47.740;7.606;2023-04-15T05:31:02;8.20;99.90
7502;DHT22;3792;47.740;7.606;2023-04-15T05:33:29;8.20;99.90
7502;DHT22;3792;47.740;7.606;2023-04-15T05:35:56;8.20;99.90
7502;DHT22;3792;47.740;7.606;2023-04-15T05:38:23;8.20;99.90
7502;DHT22;3792;47.740;7.606;2023-04-15T05:40:50;8.10;99.90
7502;DHT22;3792;47.740;7.606;2023-04-15T05:43:17;8.10;99.90
7502;DHT22;3792;47.740;7.606;2023-04-15T05:45:45;8.10;99.90
7502;DHT22;3792;47.740;7.606;2023-04-15T05:48:12;8.10;99.90
7502;DHT22;3792;47.740;7.606;2023-04-15T05:50:40;8.10;99.90
7502;DHT22;3792;47.740;7.606;2023-04-15T05:53:08;8.10;99.90
7502;DHT22;3792;47.740;7.606;2023-04-15T05:55:35;8.00;99.90
7502;DHT22;3792;47.740;7.606;2023-04-15T05:58:02;8.10;99.90
7502;DHT22;3792;47.740;7.606;2023-04-15T06:00:29;8.10;99.90
7502;DHT22;3792;47.740;7.606;2023-04-15T06:02:59;8.00;99.90
7502;DHT22;3792;47.740;7.606;2023-04-15T06:05:26;8.00;99.90
7502;DHT22;3792;47.740;7.606;2023-04-15T06:07:53;8.00;99.90
7502;DHT22;3792;47.740;7.606;2023-04-15T06:10:22;8.00;99.90
7502;DHT22;3792;47.740;7.606;2023-04-15T06:12:49;8.00;99.90
7502;DHT22;3792;47.740;7.606;2023-04-15T06:15:20;8.00;99.90
7502;DHT22;3792;47.740;7.606;2023-04-15T06:17:48;8.00;99.90
7502;DHT22;3792;47.740;7.606;2023-04-15T06:20:28;8.00;99.90
7502;DHT22;3792;47.740;7.606;2023-04-15T06:22:56;8.00;99.90
7502;DHT22;3792;47.740;7.606;2023-04-15T06:25:23;8.10;99.90
7502;DHT22;3792;47.740;7.606;2023-04-15T06:27:50;8.10;99.90
7502;DHT22;3792;47.740;7.606;2023-04-15T06:30:17;8.20;99.90
7502;DHT22;3792;47.740;7.606;2023-04-15T06:32:45;8.20;99.90
7502;DHT22;3792;47.740;7.606;2023-04-15T06:35:13;8.20;99.90
7502;DHT22;3792;47.740;7.606;2023-04-15T06:37:42;8.30;99.90
7502;DHT22;3792;47.740;7.606;2023-04-15T06:40:10;8.40;99.90
7502;DHT22;3792;47.740;7.606;2023-04-15T06:42:37;8.50;99.90
7502;DHT22;3792;47.740;7.606;2023-04-15T06:45:05;8.60;99.90
7502;DHT22;3792;47.740;7.606;2023-04-15T06:47:33;8.70;99.90
7502;DHT22;3792;47.740;7.606;2023-04-15T06:50:00;8.80;99.90
7502;DHT22;3792;47.740;7.606;2023-04-15T06:52:30;8.90;99.90
7502;DHT22;3792;47.740;7.606;2023-04-15T06:54:58;9.00;99.90
7502;DHT22;3792;47.740;7.606;2023-04-15T06:57:25;9.00;99.90
7502;DHT22;3792;47.740;7.606;2023-04-15T06:59:53;9.10;99.90
7502;DHT22;3792;47.740;7.606;2023-04-15T07:02:21;9.10;99.90
7502;DHT22;3792;47.740;7.606;2023-04-15T07:04:48;9.20;99.90
7502;DHT22;3792;47.740;7.606;2023-04-15T07:07:20;9.30;99.90
7502;DHT22;3792;47.740;7.606;2023-04-15T07:09:47;9.50;99.90
7502;DHT22;3792;47.740;7.606;2023-04-15T07:12:15;9.70;99.90
7502;DHT22;3792;47.740;7.606;2023-04-15T07:14:42;10.00;99.90
7502;DHT22;3792;47.740;7.606;2023-04-15T07:17:10;10.30;99.90
7502;DHT22;3792;47.740;7.606;2023-04-15T07:19:37;10.60;99.90
7502;DHT22;3792;47.740;7.606;2023-04-15T07:22:05;10.90;99.90
7502;DHT22;3792;47.740;7.606;2023-04-15T07:24:32;11.00;99.90
7502;DHT22;3792;47.740;7.606;2023-04-15T07:26:59;11.10;99.90
7502;DHT22;3792;47.740;7.606;2023-04-15T07:29:27;11.10;99.90
7502;DHT22;3792;47.740;7.606;2023-04-15T07:31:54;11.10;99.90
7502;DHT22;3792;47.740;7.606;2023-04-15T07:34:22;11.20;99.90
7502;DHT22;3792;47.740;7.606;2023-04-15T07:36:49;11.20;99.90
7502;DHT22;3792;47.740;7.606;2023-04-15T07:39:16;11.10;99.90
7502;DHT22;3792;47.740;7.606;2023-04-15T07:41:43;11.00;99.90
7502;DHT22;3792;47.740;7.606;2023-04-15T07:44:11;11.00;99.90
7502;DHT22;3792;47.740;7.606;2023-04-15T07:46:39;10.70;99.90
7502;DHT22;3792;47.740;7.606;2023-04-15T07:49:06;10.60;99.90
7502;DHT22;3792;47.740;7.606;2023-04-15T07:51:34;10.60;99.90
7502;DHT22;3792;47.740;7.606;2023-04-15T07:54:03;10.60;99.90
7502;DHT22;3792;47.740;7.606;2023-04-15T07:56:30;10.70;99.90
7502;DHT22;3792;47.740;7.606;2023-04-15T07:58:57;10.60;99.90
7502;DHT22;3792;47.740;7.606;2023-04-15T08:01:26;10.70;99.90
7502;DHT22;3792;47.740;7.606;2023-04-15T08:03:55;10.90;99.90
7502;DHT22;3792;47.740;7.606;2023-04-15T08:06:22;11.00;99.90
7502;DHT22;3792;47.740;7.606;2023-04-15T08:08:49;11.00;99.90
7502;DHT22;3792;47.740;7.606;2023-04-15T08:11:17;11.00;99.90
7502;DHT22;3792;47.740;7.606;2023-04-15T08:13:44;11.00;99.90
7502;DHT22;3792;47.740;7.606;2023-04-15T08:16:22;10.90;99.90
7502;DHT22;3792;47.740;7.606;2023-04-15T08:18:51;10.90;99.90
7502;DHT22;3792;47.740;7.606;2023-04-15T08:21:19;10.90;99.90
7502;DHT22;3792;47.740;7.606;2023-04-15T08:23:49;10.80;99.90
7502;DHT22;3792;47.740;7.606;2023-04-15T08:26:16;10.70;99.90
7502;DHT22;3792;47.740;7.606;2023-04-15T08:28:44;10.70;99.90
7502;DHT22;3792;47.740;7.606;2023-04-15T08:31:12;10.60;99.90
7502;DHT22;3792;47.740;7.606;2023-04-15T08:33:39;10.60;99.90
7502;DHT22;3792;47.740;7.606;2023-04-15T08:36:07;10.60;99.90
7502;DHT22;3792;47.740;7.606;2023-04-15T08:38:35;10.60;99.90
7502;DHT22;3792;47.740;7.606;2023-04-15T08:41:09;10.70;99.90
7502;DHT22;3792;47.740;7.606;2023-04-15T08:43:48;10.70;99.90
7502;DHT22;3792;47.740;7.606;2023-04-15T08:46:17;10.80;99.90
7502;DHT22;3792;47.740;7.606;2023-04-15T08:48:46;10.80;99.90
7502;DHT22;3792;47.740;7.606;2023-04-15T08:51:13;10.90;99.90
7502;DHT22;3792;47.740;7.606;2023-04-15T08:53:43;10.90;99.90
7502;DHT22;3792;47.740;7.606;2023-04-15T08:56:13;11.00;99.90
7502;DHT22;3792;47.740;7.606;2023-04-15T08:58:42;10.90;99.90
7502;DHT22;3792;47.740;7.606;2023-04-15T09:01:11;10.90;99.90
7502;DHT22;3792;47.740;7.606;2023-04-15T09:03:39;11.00;99.90
7502;DHT22;3792;47.740;7.606;2023-04-15T09:06:06;10.90;99.90
7502;DHT22;3792;47.740;7.606;2023-04-15T09:08:33;11.00;99.90
7502;DHT22;3792;47.740;7.606;2023-04-15T09:11:02;11.00;99.90
7502;DHT22;3792;47.740;7.606;2023-04-15T09:13:30;10.90;99.90
7502;DHT22;3792;47.740;7.606;2023-04-15T09:15:57;10.90;99.90
7502;DHT22;3792;47.740;7.606;2023-04-15T09:18:27;10.90;99.90
7502;DHT22;3792;47.740;7.606;2023-04-15T09:20:55;10.90;99.90
7502;DHT22;3792;47.740;7.606;2023-04-15T09:23:22;10.90;99.90
7502;DHT22;3792;47.740;7.606;2023-04-15T09:25:49;10.90;99.90
7502;DHT22;3792;47.740;7.606;2023-04-15T09:28:24;10.90;99.90
7502;DHT22;3792;47.740;7.606;2023-04-15T09:30:55;10.90;99.90
7502;DHT22;3792;47.740;7.606;2023-04-15T09:33:22;10.80;99.90
7502;DHT22;3792;47.740;7.606;2023-04-15T09:35:59;10.80;99.90
7502;DHT22;3792;47.740;7.606;2023-04-15T09:38:26;10.80;99.90
7502;DHT22;3792;47.740;7.606;2023-04-15T09:40:54;10.70;99.90
7502;DHT22;3792;47.740;7.606;2023-04-15T09:43:26;10.70;99.90
7502;DHT22;3792;47.740;7.606;2023-04-15T09:46:04;10.80;99.90
7502;DHT22;3792;47.740;7.606;2023-04-15T09:48:31;10.90;99.90
7502;DHT22;3792;47.740;7.606;2023-04-15T09:50:59;10.90;99.90
7502;DHT22;3792;47.740;7.606;2023-04-15T09:53:27;11.00;99.90
7502;DHT22;3792;47.740;7.606;2023-04-15T09:55:55;11.20;99.90
7502;DHT22;3792;47.740;7.606;2023-04-15T09:58:26;11.40;99.90
7502;DHT22;3792;47.740;7.606;2023-04-15T10:00:55;11.70;99.90
7502;DHT22;3792;47.740;7.606;2023-04-15T10:03:24;12.00;99.90
7502;DHT22;3792;47.740;7.606;2023-04-15T10:05:52;12.30;99.90
7502;DHT22;3792;47.740;7.606;2023-04-15T10:08:22;12.40;99.90
7502;DHT22;3792;47.740;7.606;2023-04-15T10:10:50;12.60;99.90
7502;DHT22;3792;47.740;7.606;2023-04-15T10:13:19;12.60;99.90
7502;DHT22;3792;47.740;7.606;2023-04-15T10:15:50;12.70;99.90
7502;DHT22;3792;47.740;7.606;2023-04-15T10:18:19;12.80;99.90
7502;DHT22;3792;47.740;7.606;2023-04-15T10:20:47;12.90;99.90
7502;DHT22;3792;47.740;7.606;2023-04-15T10:23:15;13.10;99.90
7502;DHT22;3792;47.740;7.606;2023-04-15T10:25:43;13.10;99.90
7502;DHT22;3792;47.740;7.606;2023-04-15T10:28:11;13.20;99.90
7502;DHT22;3792;47.740;7.606;2023-04-15T10:30:39;13.20;99.90
7502;DHT22;3792;47.740;7.606;2023-04-15T10:33:09;13.30;99.90
7502;DHT22;3792;47.740;7.606;2023-04-15T10:35:37;13.30;99.90
7502;DHT22;3792;47.740;7.606;2023-04-15T10:38:32;13.10;99.90
7502;DHT22;3792;47.740;7.606;2023-04-15T10:41:16;12.90;99.90
7502;DHT22;3792;47.740;7.606;2023-04-15T10:43:48;12.60;99.90
7502;DHT22;3792;47.740;7.606;2023-04-15T10:46:21;12.50;99.90
7502;DHT22;3792;47.740;7.606;2023-04-15T10:48:51;12.40;99.90
7502;DHT22;3792;47.740;7.606;2023-04-15T10:51:27;12.40;99.90
7502;DHT22;3792;47.740;7.606;2023-04-15T10:53:58;12.50;99.90
7502;DHT22;3792;47.740;7.606;2023-04-15T10:56:28;12.50;99.90
7502;DHT22;3792;47.740;7.606;2023-04-15T10:58:58;12.60;99.90
7502;DHT22;3792;47.740;7.606;2023-04-15T11:01:49;12.50;99.90
7502;DHT22;3792;47.740;7.606;2023-04-15T11:04:51;12.60;99.90
7502;DHT22;3792;47.740;7.606;2023-04-15T11:07:34;12.60;99.90
7502;DHT22;3792;47.740;7.606;2023-04-15T11:10:01;12.80;99.90
7502;DHT22;3792;47.740;7.606;2023-04-15T11:12:35;12.80;99.90
7502;DHT22;3792;47.740;7.606;2023-04-15T11:15:26;12.80;99.90
7502;DHT22;3792;47.740;7.606;2023-04-15T11:17:53;12.60;99.90
7502;DHT22;3792;47.740;7.606;2023-04-15T11:20:22;12.50;99.90
7502;DHT22;3792;47.740;7.606;2023-04-15T11:22:50;12.40;99.90
7502;DHT22;3792;47.740;7.606;2023-04-15T11:25:24;12.30;99.90
7502;DHT22;3792;47.740;7.606;2023-04-15T11:27:52;12.30;99.90
7502;DHT22;3792;47.740;7.606;2023-04-15T11:30:21;12.20;99.90
7502;DHT22;3792;47.740;7.606;2023-04-15T11:32:48;12.20;99.90
7502;DHT22;3792;47.740;7.606;2023-04-15T11:35:16;12.30;99.90
7502;DHT22;3792;47.740;7.606;2023-04-15T11:37:45;12.40;99.90
7502;DHT22;3792;47.740;7.606;2023-04-15T11:40:13;12.60;99.90
7502;DHT22;3792;47.740;7.606;2023-04-15T11:42:42;12.70;99.90
7502;DHT22;3792;47.740;7.606;2023-04-15T11:45:11;12.80;99.90
7502;DHT22;3792;47.740;7.606;2023-04-15T11:47:39;13.00;99.90
7502;DHT22;3792;47.740;7.606;2023-04-15T11:50:16;12.90;99.90
7502;DHT22;3792;47.740;7.606;2023-04-15T11:52:55;12.90;99.90
7502;DHT22;3792;47.740;7.606;2023-04-15T11:55:23;12.90;99.90
7502;DHT22;3792;47.740;7.606;2023-04-15T11:58:05;13.00;99.90
7502;DHT22;3792;47.740;7.606;2023-04-15T12:00:34;13.30;99.90
7502;DHT22;3792;47.740;7.606;2023-04-15T12:03:37;13.50;99.90
7502;DHT22;3792;47.740;7.606;2023-04-15T12:06:15;13.80;99.90
7502;DHT22;3792;47.740;7.606;2023-04-15T12:08:58;14.10;99.90
7502;DHT22;3792;47.740;7.606;2023-04-15T12:11:31;14.40;99.90
7502;DHT22;3792;47.740;7.606;2023-04-15T12:14:03;14.30;99.90
7502;DHT22;3792;47.740;7.606;2023-04-15T12:16:30;14.50;99.90
7502;DHT22;3792;47.740;7.606;2023-04-15T12:19:04;14.80;99.90
7502;DHT22;3792;47.740;7.606;2023-04-15T12:21:37;14.80;99.90
7502;DHT22;3792;47.740;7.606;2023-04-15T12:24:07;14.60;99.90
7502;DHT22;3792;47.740;7.606;2023-04-15T12:26:36;14.60;99.90
7502;DHT22;3792;47.740;7.606;2023-04-15T12:29:05;14.60;99.90
7502;DHT22;3792;47.740;7.606;2023-04-15T12:31:34;14.60;99.90
7502;DHT22;3792;47.740;7.606;2023-04-15T12:34:02;14.60;99.90
7502;DHT22;3792;47.740;7.606;2023-04-15T12:36:30;14.60;99.90
7502;DHT22;3792;47.740;7.606;2023-04-15T12:39:01;14.50;99.90
7502;DHT22;3792;47.740;7.606;2023-04-15T12:41:30;14.60;99.90
7502;DHT22;3792;47.740;7.606;2023-04-15T13:13:09;15.10;99.90
7502;DHT22;3792;47.740;7.606;2023-04-15T13:15:36;15.00;99.90
7502;DHT22;3792;47.740;7.606;2023-04-15T13:18:05;14.90;99.90
7502;DHT22;3792;47.740;7.606;2023-04-15T13:20:32;15.00;99.90
7502;DHT22;3792;47.740;7.606;2023-04-15T13:22:59;15.10;99.90
7502;DHT22;3792;47.740;7.606;2023-04-15T13:25:26;14.80;99.90
7502;DHT22;3792;47.740;7.606;2023-04-15T13:27:53;14.60;99.90
7502;DHT22;3792;47.740;7.606;2023-04-15T13:30:23;14.50;99.90
7502;DHT22;3792;47.740;7.606;2023-04-15T13:32:50;14.80;99.90
7502;DHT22;3792;47.740;7.606;2023-04-15T13:35:18;15.00;99.90
7502;DHT22;3792;47.740;7.606;2023-04-15T13:37:46;15.20;99.90
7502;DHT22;3792;47.740;7.606;2023-04-15T13:40:13;15.00;99.90
7502;DHT22;3792;47.740;7.606;2023-04-15T13:42:41;15.00;99.90
7502;DHT22;3792;47.740;7.606;2023-04-15T13:45:09;14.90;99.90
7502;DHT22;3792;47.740;7.606;2023-04-15T13:47:37;14.90;99.90
7502;DHT22;3792;47.740;7.606;2023-04-15T13:50:05;14.80;99.90
7502;DHT22;3792;47.740;7.606;2023-04-15T13:52:32;14.80;99.90
7502;DHT22;3792;47.740;7.606;2023-04-15T13:54:59;14.80;99.90
7502;DHT22;3792;47.740;7.606;2023-04-15T13:57:26;14.80;99.90
7502;DHT22;3792;47.740;7.606;2023-04-15T13:59:54;14.90;99.90
7502;DHT22;3792;47.740;7.606;2023-04-15T14:02:21;15.50;99.90
7502;DHT22;3792;47.740;7.606;2023-04-15T14:04:50;16.20;99.90
7502;DHT22;3792;47.740;7.606;2023-04-15T14:07:17;16.70;99.50
7502;DHT22;3792;47.740;7.606;2023-04-15T14:09:44;17.20;99.00
7502;DHT22;3792;47.740;7.606;2023-04-15T14:12:12;17.20;98.80
7502;DHT22;3792;47.740;7.606;2023-04-15T14:14:40;17.00;98.60
7502;DHT22;3792;47.740;7.606;2023-04-15T14:17:07;16.50;98.80
7502;DHT22;3792;47.740;7.606;2023-04-15T14:19:34;15.90;99.10
7502;DHT22;3792;47.740;7.606;2023-04-15T14:22:02;15.50;99.90
7502;DHT22;3792;47.740;7.606;2023-04-15T14:24:29;15.40;99.90
7502;DHT22;3792;47.740;7.606;2023-04-15T14:26:57;15.50;99.90
7502;DHT22;3792;47.740;7.606;2023-04-15T14:29:24;15.50;99.70
7502;DHT22;3792;47.740;7.606;2023-04-15T14:31:51;15.20;99.90
7502;DHT22;3792;47.740;7.606;2023-04-15T14:34:18;15.30;99.90
7502;DHT22;3792;47.740;7.606;2023-04-15T14:36:46;15.40;99.90
7502;DHT22;3792;47.740;7.606;2023-04-15T14:39:15;15.80;99.90
7502;DHT22;3792;47.740;7.606;2023-04-15T14:41:42;16.30;99.70
7502;DHT22;3792;47.740;7.606;2023-04-15T14:44:09;16.80;99.30
7502;DHT22;3792;47.740;7.606;2023-04-15T14:46:37;16.80;99.10
7502;DHT22;3792;47.740;7.606;2023-04-15T14:49:05;16.60;99.00
7502;DHT22;3792;47.740;7.606;2023-04-15T14:51:32;17.00;99.40
7502;DHT22;3792;47.740;7.606;2023-04-15T14:54:00;17.20;98.60
7502;DHT22;3792;47.740;7.606;2023-04-15T14:56:28;17.10;98.60
7502;DHT22;3792;47.740;7.606;2023-04-15T14:58:55;17.30;98.90
7502;DHT22;3792;47.740;7.606;2023-04-15T15:01:22;17.40;98.30
7502;DHT22;3792;47.740;7.606;2023-04-15T15:03:49;17.30;98.50
7502;DHT22;3792;47.740;7.606;2023-04-15T15:06:16;17.30;97.70
7502;DHT22;3792;47.740;7.606;2023-04-15T15:08:44;17.40;97.60
7502;DHT22;3792;47.740;7.606;2023-04-15T15:11:12;17.30;98.00
7502;DHT22;3792;47.740;7.606;2023-04-15T15:13:40;17.40;98.10
7502;DHT22;3792;47.740;7.606;2023-04-15T15:16:07;17.40;97.70
7502;DHT22;3792;47.740;7.606;2023-04-15T15:18:34;17.60;97.10
7502;DHT22;3792;47.740;7.606;2023-04-15T15:21:01;17.50;97.40
7502;DHT22;3792;47.740;7.606;2023-04-15T15:23:28;17.00;98.10
7502;DHT22;3792;47.740;7.606;2023-04-15T15:25:57;16.90;98.10
7502;DHT22;3792;47.740;7.606;2023-04-15T15:28:24;17.00;97.70
7502;DHT22;3792;47.740;7.606;2023-04-15T15:30:52;16.90;97.90
7502;DHT22;3792;47.740;7.606;2023-04-15T15:33:19;16.70;98.30
7502;DHT22;3792;47.740;7.606;2023-04-15T15:35:47;16.50;98.40
7502;DHT22;3792;47.740;7.606;2023-04-15T15:38:14;16.40;98.70
7502;DHT22;3792;47.740;7.606;2023-04-15T15:40:41;16.30;98.50
7502;DHT22;3792;47.740;7.606;2023-04-15T15:43:08;16.00;98.80
7502;DHT22;3792;47.740;7.606;2023-04-15T15:45:35;15.80;99.30
7502;DHT22;3792;47.740;7.606;2023-04-15T15:48:04;15.60;99.40
7502;DHT22;3792;47.740;7.606;2023-04-15T15:50:32;15.50;99.80
7502;DHT22;3792;47.740;7.606;2023-04-15T15:52:59;15.70;99.80
7502;DHT22;3792;47.740;7.606;2023-04-15T15:55:26;15.80;99.60
7502;DHT22;3792;47.740;7.606;2023-04-15T15:57:53;16.00;99.80
7502;DHT22;3792;47.740;7.606;2023-04-15T16:00:20;16.10;99.90
7502;DHT22;3792;47.740;7.606;2023-04-15T16:02:47;16.20;99.50
7502;DHT22;3792;47.740;7.606;2023-04-15T16:05:16;16.30;99.00
7502;DHT22;3792;47.740;7.606;2023-04-15T16:07:43;16.00;99.10
7502;DHT22;3792;47.740;7.606;2023-04-15T16:10:10;15.50;99.50
7502;DHT22;3792;47.740;7.606;2023-04-15T16:12:38;15.30;99.90
7502;DHT22;3792;47.740;7.606;2023-04-15T16:15:08;15.00;99.90
7502;DHT22;3792;47.740;7.606;2023-04-15T16:17:35;14.70;99.90
7502;DHT22;3792;47.740;7.606;2023-04-15T16:20:03;14.40;99.90
7502;DHT22;3792;47.740;7.606;2023-04-15T16:22:32;14.30;99.90
7502;DHT22;3792;47.740;7.606;2023-04-15T16:25:00;14.20;99.90
7502;DHT22;3792;47.740;7.606;2023-04-15T16:27:27;14.30;99.90
7502;DHT22;3792;47.740;7.606;2023-04-15T16:29:54;14.40;99.90
7502;DHT22;3792;47.740;7.606;2023-04-15T16:32:24;14.70;99.90
7502;DHT22;3792;47.740;7.606;2023-04-15T16:34:52;14.90;99.90
7502;DHT22;3792;47.740;7.606;2023-04-15T16:37:19;14.90;99.90
7502;DHT22;3792;47.740;7.606;2023-04-15T16:39:47;14.80;99.90
7502;DHT22;3792;47.740;7.606;2023-04-15T16:42:15;14.80;99.90
7502;DHT22;3792;47.740;7.606;2023-04-15T16:44:42;14.70;99.90
7502;DHT22;3792;47.740;7.606;2023-04-15T16:47:09;14.80;99.90